sensor_id;sensor_type;location;lat;lon;timestamp;P1;durP1;ratioP1;P2;durP2;ratioP2
946;SDS011;460;48.734;9.152;2023-06-01T00:01:43;2.03;;;1.83;;
946;SDS011;460;48.734;9.152;2023-06-01T00:04:10;4.53;;;2.80;;
946;SDS011;460;48.734;9.152;2023-06-01T00:06:39;2.73;;;2.53;;
946;SDS011;460;48.734;9.152;2023-06-01T00:09:06;2.37;;;2.23;;
946;SDS011;460;48.734;9.152;2023-06-01T00:11:33;4.27;;;2.57;;
946;SDS011;460;48.734;9.152;2023-06-01T00:14:00;2.77;;;2.57;;
946;SDS011;460;48.734;9.152;2023-06-01T00:16:27;4.10;;;1.77;;
946;SDS011;460;48.734;9.152;2023-06-01T00:18:55;1.77;;;1.67;;
946;SDS011;460;48.734;9.152;2023-06-01T00:21:25;5.77;;;2.53;;
946;SDS011;460;48.734;9.152;2023-06-01T00:23:54;2.43;;;2.20;;
946;SDS011;460;48.734;9.152;2023-06-01T00:26:21;4.40;;;2.90;;
946;SDS011;460;48.734;9.152;2023-06-01T00:28:47;3.90;;;2.30;;
946;SDS011;460;48.734;9.152;2023-06-01T00:31:14;2.43;;;1.93;;
946;SDS011;460;48.734;9.152;2023-06-01T00:33:41;2.70;;;2.50;;
946;SDS011;460;48.734;9.152;2023-06-01T00:36:08;2.10;;;1.93;;
946;SDS011;460;48.734;9.152;2023-06-01T00:38:35;2.90;;;2.60;;
946;SDS011;460;48.734;9.152;2023-06-01T00:41:03;2.63;;;2.43;;
946;SDS011;460;48.734;9.152;2023-06-01T00:43:30;2.27;;;2.07;;
946;SDS011;460;48.734;9.152;2023-06-01T00:45:57;3.90;;;2.60;;
946;SDS011;460;48.734;9.152;2023-06-01T00:48:23;2.40;;;2.17;;
946;SDS011;460;48.734;9.152;2023-06-01T00:50:50;2.37;;;1.87;;
946;SDS011;460;48.734;9.152;2023-06-01T00:53:19;2.50;;;2.03;;
946;SDS011;460;48.734;9.152;2023-06-01T00:55:46;2.00;;;1.80;;
946;SDS011;460;48.734;9.152;2023-06-01T00:58:15;2.60;;;1.67;;
946;SDS011;460;48.734;9.152;2023-06-01T01:00:42;2.00;;;1.77;;
946;SDS011;460;48.734;9.152;2023-06-01T01:03:09;2.63;;;2.30;;
946;SDS011;460;48.734;9.152;2023-06-01T01:05:39;2.43;;;2.10;;
946;SDS011;460;48.734;9.152;2023-06-01T01:08:07;2.63;;;2.43;;
946;SDS011;460;48.734;9.152;2023-06-01T01:10:41;2.00;;;1.80;;
946;SDS011;460;48.734;9.152;2023-06-01T01:13:14;3.20;;;3.00;;
946;SDS011;460;48.734;9.152;2023-06-01T01:15:48;2.23;;;2.03;;
946;SDS011;460;48.734;9.152;2023-06-01T01:18:22;2.67;;;2.47;;
946;SDS011;460;48.734;9.152;2023-06-01T01:21:00;2.53;;;2.27;;
946;SDS011;460;48.734;9.152;2023-06-01T01:24:10;2.00;;;1.80;;
946;SDS011;460;48.734;9.152;2023-06-01T01:26:54;1.93;;;1.83;;
946;SDS011;460;48.734;9.152;2023-06-01T01:29:32;1.67;;;1.57;;
946;SDS011;460;48.734;9.152;2023-06-01T01:32:01;2.50;;;2.30;;
946;SDS011;460;48.734;9.152;2023-06-01T01:34:30;1.63;;;1.53;;
946;SDS011;460;48.734;9.152;2023-06-01T01:36:58;2.20;;;2.00;;
946;SDS011;460;48.734;9.152;2023-06-01T01:39:25;1.80;;;1.70;;
946;SDS011;460;48.734;9.152;2023-06-01T01:41:52;2.03;;;1.83;;
946;SDS011;460;48.734;9.152;2023-06-01T01:44:20;1.97;;;1.80;;
946;SDS011;460;48.734;9.152;2023-06-01T01:46:51;2.10;;;1.87;;
946;SDS011;460;48.734;9.152;2023-06-01T01:49:25;5.13;;;1.93;;
946;SDS011;460;48.734;9.152;2023-06-01T01:51:56;2.70;;;1.90;;
946;SDS011;460;48.734;9.152;2023-06-01T01:54:34;3.10;;;2.20;;
946;SDS011;460;48.734;9.152;2023-06-01T01:57:05;2.07;;;1.97;;
946;SDS011;460;48.734;9.152;2023-06-01T01:59:34;2.63;;;1.87;;
946;SDS011;460;48.734;9.152;2023-06-01T02:02:03;3.23;;;2.07;;
946;SDS011;460;48.734;9.152;2023-06-01T02:04:32;2.20;;;2.00;;
946;SDS011;460;48.734;9.152;2023-06-01T02:07:03;2.10;;;1.90;;
946;SDS011;460;48.734;9.152;2023-06-01T02:09:32;2.60;;;2.37;;
946;SDS011;460;48.734;9.152;2023-06-01T02:11:59;1.50;;;1.40;;
946;SDS011;460;48.734;9.152;2023-06-01T02:14:27;2.80;;;2.10;;
946;SDS011;460;48.734;9.152;2023-06-01T02:16:55;1.87;;;1.77;;
946;SDS011;460;48.734;9.152;2023-06-01T02:19:24;2.17;;;1.70;;
946;SDS011;460;48.734;9.152;2023-06-01T02:21:50;1.73;;;1.63;;
946;SDS011;460;48.734;9.152;2023-06-01T02:24:17;2.00;;;1.83;;
946;SDS011;460;48.734;9.152;2023-06-01T02:26:45;2.60;;;2.10;;
946;SDS011;460;48.734;9.152;2023-06-01T02:29:14;1.97;;;1.60;;
946;SDS011;460;48.734;9.152;2023-06-01T02:31:41;2.37;;;2.13;;
946;SDS011;460;48.734;9.152;2023-06-01T02:34:07;2.80;;;2.60;;
946;SDS011;460;48.734;9.152;2023-06-01T02:36:36;1.80;;;1.70;;
946;SDS011;460;48.734;9.152;2023-06-01T02:39:04;2.17;;;1.60;;
946;SDS011;460;48.734;9.152;2023-06-01T02:41:31;2.00;;;1.77;;
946;SDS011;460;48.734;9.152;2023-06-01T02:43:58;2.60;;;1.73;;
946;SDS011;460;48.734;9.152;2023-06-01T02:46:26;2.80;;;2.50;;
946;SDS011;460;48.734;9.152;2023-06-01T02:48:53;2.27;;;2.10;;
946;SDS011;460;48.734;9.152;2023-06-01T02:51:20;2.70;;;2.50;;
946;SDS011;460;48.734;9.152;2023-06-01T02:53:52;2.50;;;2.30;;
946;SDS011;460;48.734;9.152;2023-06-01T02:56:19;5.03;;;2.70;;
946;SDS011;460;48.734;9.152;2023-06-01T02:58:46;2.20;;;1.77;;
946;SDS011;460;48.734;9.152;2023-06-01T03:01:13;2.17;;;1.87;;
946;SDS011;460;48.734;9.152;2023-06-01T03:03:41;3.60;;;1.53;;
946;SDS011;460;48.734;9.152;2023-06-01T03:06:10;2.77;;;2.57;;
946;SDS011;460;48.734;9.152;2023-06-01T03:08:38;2.07;;;1.87;;
946;SDS011;460;48.734;9.152;2023-06-01T03:11:07;2.80;;;1.97;;
946;SDS011;460;48.734;9.152;2023-06-01T03:13:34;2.17;;;1.97;;
946;SDS011;460;48.734;9.152;2023-06-01T03:16:03;3.13;;;1.93;;
946;SDS011;460;48.734;9.152;2023-06-01T03:18:31;1.70;;;1.60;;
946;SDS011;460;48.734;9.152;2023-06-01T03:20:58;1.83;;;1.50;;
946;SDS011;460;48.734;9.152;2023-06-01T03:23:25;3.10;;;2.17;;
946;SDS011;460;48.734;9.152;2023-06-01T03:25:54;2.20;;;2.00;;
946;SDS011;460;48.734;9.152;2023-06-01T03:28:24;1.77;;;1.67;;
946;SDS011;460;48.734;9.152;2023-06-01T03:30:52;3.47;;;2.53;;
946;SDS011;460;48.734;9.152;2023-06-01T03:33:19;3.00;;;2.03;;
946;SDS011;460;48.734;9.152;2023-06-01T03:35:46;1.67;;;1.57;;
946;SDS011;460;48.734;9.152;2023-06-01T03:38:14;2.63;;;2.43;;
946;SDS011;460;48.734;9.152;2023-06-01T03:40:42;2.77;;;2.57;;
946;SDS011;460;48.734;9.152;2023-06-01T03:43:08;1.60;;;1.50;;
946;SDS011;460;48.734;9.152;2023-06-01T03:45:37;2.07;;;1.87;;
946;SDS011;460;48.734;9.152;2023-06-01T03:48:04;1.73;;;1.60;;
946;SDS011;460;48.734;9.152;2023-06-01T03:50:31;1.80;;;1.50;;
946;SDS011;460;48.734;9.152;2023-06-01T03:52:58;2.13;;;1.60;;
946;SDS011;460;48.734;9.152;2023-06-01T03:55:25;2.07;;;1.83;;
946;SDS011;460;48.734;9.152;2023-06-01T03:57:52;3.63;;;2.10;;
946;SDS011;460;48.734;9.152;2023-06-01T04:00:19;1.93;;;1.60;;
946;SDS011;460;48.734;9.152;2023-06-01T04:02:50;1.93;;;1.80;;
946;SDS011;460;48.734;9.152;2023-06-01T04:05:18;2.30;;;1.90;;
946;SDS011;460;48.734;9.152;2023-06-01T04:07:46;2.97;;;2.30;;
946;SDS011;460;48.734;9.152;2023-06-01T04:10:14;2.07;;;1.73;;
946;SDS011;460;48.734;9.152;2023-06-01T04:12:41;1.80;;;1.70;;
946;SDS011;460;48.734;9.152;2023-06-01T04:15:09;2.10;;;1.77;;
946;SDS011;460;48.734;9.152;2023-06-01T04:17:37;2.30;;;2.07;;
946;SDS011;460;48.734;9.152;2023-06-01T04:20:07;3.30;;;2.80;;
946;SDS011;460;48.734;9.152;2023-06-01T04:22:36;2.27;;;2.07;;
946;SDS011;460;48.734;9.152;2023-06-01T04:25:04;2.77;;;2.47;;
946;SDS011;460;48.734;9.152;2023-06-01T04:27:33;2.00;;;1.80;;
946;SDS011;460;48.734;9.152;2023-06-01T04:30:02;4.57;;;1.90;;
946;SDS011;460;48.734;9.152;2023-06-01T04:32:32;3.17;;;2.00;;
946;SDS011;460;48.734;9.152;2023-06-01T04:35:00;2.30;;;2.10;;
946;SDS011;460;48.734;9.152;2023-06-01T04:37:31;2.07;;;1.80;;
946;SDS011;460;48.734;9.152;2023-06-01T04:39:59;2.43;;;2.23;;
946;SDS011;460;48.734;9.152;2023-06-01T04:42:25;1.30;;;1.30;;
946;SDS011;460;48.734;9.152;2023-06-01T04:44:55;4.70;;;1.77;;
946;SDS011;460;48.734;9.152;2023-06-01T04:47:23;2.63;;;1.90;;
946;SDS011;460;48.734;9.152;2023-06-01T04:49:50;2.03;;;1.87;;
946;SDS011;460;48.734;9.152;2023-06-01T04:52:17;1.70;;;1.60;;
946;SDS011;460;48.734;9.152;2023-06-01T04:54:46;1.63;;;1.33;;
946;SDS011;460;48.734;9.152;2023-06-01T04:57:13;1.93;;;1.43;;
946;SDS011;460;48.734;9.152;2023-06-01T04:59:39;2.50;;;2.00;;
946;SDS011;460;48.734;9.152;2023-06-01T05:02:06;1.67;;;1.37;;
946;SDS011;460;48.734;9.152;2023-06-01T05:04:33;1.33;;;1.23;;
946;SDS011;460;48.734;9.152;2023-06-01T05:07:01;4.00;;;2.20;;
946;SDS011;460;48.734;9.152;2023-06-01T05:09:28;1.50;;;1.40;;
946;SDS011;460;48.734;9.152;2023-06-01T05:11:56;2.00;;;1.80;;
946;SDS011;460;48.734;9.152;2023-06-01T05:14:23;2.83;;;2.07;;
946;SDS011;460;48.734;9.152;2023-06-01T05:16:49;2.13;;;1.93;;
946;SDS011;460;48.734;9.152;2023-06-01T05:19:16;1.93;;;1.83;;
946;SDS011;460;48.734;9.152;2023-06-01T05:21:43;3.00;;;2.03;;
946;SDS011;460;48.734;9.152;2023-06-01T05:24:10;1.47;;;1.37;;
946;SDS011;460;48.734;9.152;2023-06-01T05:26:36;2.33;;;2.13;;
946;SDS011;460;48.734;9.152;2023-06-01T05:29:05;2.10;;;1.73;;
946;SDS011;460;48.734;9.152;2023-06-01T05:31:31;1.63;;;1.53;;
946;SDS011;460;48.734;9.152;2023-06-01T05:33:58;1.57;;;1.27;;
946;SDS011;460;48.734;9.152;2023-06-01T05:36:25;1.70;;;1.60;;
946;SDS011;460;48.734;9.152;2023-06-01T05:38:52;2.00;;;1.90;;
946;SDS011;460;48.734;9.152;2023-06-01T05:41:19;1.37;;;1.27;;
946;SDS011;460;48.734;9.152;2023-06-01T05:43:46;2.53;;;2.43;;
946;SDS011;460;48.734;9.152;2023-06-01T05:46:14;2.37;;;1.60;;
946;SDS011;460;48.734;9.152;2023-06-01T05:48:40;2.67;;;2.47;;
946;SDS011;460;48.734;9.152;2023-06-01T05:51:07;1.70;;;1.60;;
946;SDS011;460;48.734;9.152;2023-06-01T05:53:34;2.63;;;1.87;;
946;SDS011;460;48.734;9.152;2023-06-01T05:56:01;2.40;;;1.60;;
946;SDS011;460;48.734;9.152;2023-06-01T05:58:27;1.50;;;1.40;;
946;SDS011;460;48.734;9.152;2023-06-01T06:00:54;1.73;;;1.63;;
946;SDS011;460;48.734;9.152;2023-06-01T06:03:22;2.03;;;1.80;;
946;SDS011;460;48.734;9.152;2023-06-01T06:05:49;1.67;;;1.57;;
946;SDS011;460;48.734;9.152;2023-06-01T06:08:16;2.30;;;2.10;;
946;SDS011;460;48.734;9.152;2023-06-01T06:10:43;1.73;;;1.60;;
946;SDS011;460;48.734;9.152;2023-06-01T06:13:10;2.57;;;1.77;;
946;SDS011;460;48.734;9.152;2023-06-01T06:15:37;2.97;;;2.27;;
946;SDS011;460;48.734;9.152;2023-06-01T06:18:03;3.17;;;1.60;;
946;SDS011;460;48.734;9.152;2023-06-01T06:20:32;1.77;;;1.67;;
946;SDS011;460;48.734;9.152;2023-06-01T06:22:58;2.13;;;1.60;;
946;SDS011;460;48.734;9.152;2023-06-01T06:25:25;2.00;;;1.73;;
946;SDS011;460;48.734;9.152;2023-06-01T06:27:52;1.70;;;1.60;;
946;SDS011;460;48.734;9.152;2023-06-01T06:30:19;2.60;;;1.97;;
946;SDS011;460;48.734;9.152;2023-06-01T06:32:46;3.40;;;3.10;;
946;SDS011;460;48.734;9.152;2023-06-01T06:35:12;2.30;;;2.10;;
946;SDS011;460;48.734;9.152;2023-06-01T06:37:40;2.17;;;1.90;;
946;SDS011;460;48.734;9.152;2023-06-01T06:40:08;2.57;;;2.37;;
946;SDS011;460;48.734;9.152;2023-06-01T06:42:36;1.80;;;1.70;;
946;SDS011;460;48.734;9.152;2023-06-01T06:45:03;1.87;;;1.77;;
946;SDS011;460;48.734;9.152;2023-06-01T06:47:31;5.20;;;2.40;;
946;SDS011;460;48.734;9.152;2023-06-01T06:49:57;2.03;;;1.93;;
946;SDS011;460;48.734;9.152;2023-06-01T06:52:24;1.67;;;1.57;;
946;SDS011;460;48.734;9.152;2023-06-01T06:54:52;2.10;;;1.90;;
946;SDS011;460;48.734;9.152;2023-06-01T06:57:19;2.07;;;1.97;;
946;SDS011;460;48.734;9.152;2023-06-01T06:59:46;3.53;;;2.40;;
946;SDS011;460;48.734;9.152;2023-06-01T07:02:13;2.13;;;1.93;;
946;SDS011;460;48.734;9.152;2023-06-01T07:04:40;2.40;;;2.20;;
946;SDS011;460;48.734;9.152;2023-06-01T07:07:06;2.17;;;2.03;;
946;SDS011;460;48.734;9.152;2023-06-01T07:09:33;1.90;;;1.80;;
946;SDS011;460;48.734;9.152;2023-06-01T07:12:01;2.20;;;2.00;;
946;SDS011;460;48.734;9.152;2023-06-01T07:14:28;2.30;;;1.87;;
946;SDS011;460;48.734;9.152;2023-06-01T07:16:55;2.63;;;2.10;;
946;SDS011;460;48.734;9.152;2023-06-01T07:19:22;2.17;;;1.97;;
946;SDS011;460;48.734;9.152;2023-06-01T07:21:49;2.20;;;2.00;;
946;SDS011;460;48.734;9.152;2023-06-01T07:24:17;2.80;;;2.47;;
946;SDS011;460;48.734;9.152;2023-06-01T07:26:45;3.70;;;2.73;;
946;SDS011;460;48.734;9.152;2023-06-01T07:29:13;2.80;;;2.60;;
946;SDS011;460;48.734;9.152;2023-06-01T07:31:40;2.70;;;2.50;;
946;SDS011;460;48.734;9.152;2023-06-01T07:34:06;2.80;;;2.37;;
946;SDS011;460;48.734;9.152;2023-06-01T07:36:33;2.17;;;2.00;;
946;SDS011;460;48.734;9.152;2023-06-01T07:39:02;2.53;;;2.30;;
946;SDS011;460;48.734;9.152;2023-06-01T07:41:31;2.43;;;2.23;;
946;SDS011;460;48.734;9.152;2023-06-01T07:43:58;3.00;;;2.53;;
946;SDS011;460;48.734;9.152;2023-06-01T07:46:26;2.93;;;2.40;;
946;SDS011;460;48.734;9.152;2023-06-01T07:48:53;2.40;;;2.20;;
946;SDS011;460;48.734;9.152;2023-06-01T07:51:20;3.30;;;2.83;;
946;SDS011;460;48.734;9.152;2023-06-01T07:53:47;3.30;;;2.87;;
946;SDS011;460;48.734;9.152;2023-06-01T07:56:14;3.03;;;2.83;;
946;SDS011;460;48.734;9.152;2023-06-01T07:58:41;3.70;;;2.27;;
946;SDS011;460;48.734;9.152;2023-06-01T08:01:09;2.70;;;2.50;;
946;SDS011;460;48.734;9.152;2023-06-01T08:03:37;2.77;;;2.53;;
946;SDS011;460;48.734;9.152;2023-06-01T08:06:09;2.60;;;2.40;;
946;SDS011;460;48.734;9.152;2023-06-01T08:08:36;3.10;;;2.87;;
946;SDS011;460;48.734;9.152;2023-06-01T08:11:03;2.30;;;2.10;;
946;SDS011;460;48.734;9.152;2023-06-01T08:13:30;3.40;;;3.10;;
946;SDS011;460;48.734;9.152;2023-06-01T08:16:01;3.10;;;2.70;;
946;SDS011;460;48.734;9.152;2023-06-01T08:18:28;4.47;;;3.03;;
946;SDS011;460;48.734;9.152;2023-06-01T08:20:56;2.30;;;2.10;;
946;SDS011;460;48.734;9.152;2023-06-01T08:23:25;2.90;;;2.40;;
946;SDS011;460;48.734;9.152;2023-06-01T08:25:52;2.50;;;2.30;;
946;SDS011;460;48.734;9.152;2023-06-01T08:28:18;6.13;;;2.57;;
946;SDS011;460;48.734;9.152;2023-06-01T08:30:45;2.67;;;2.47;;
946;SDS011;460;48.734;9.152;2023-06-01T08:33:12;2.80;;;2.60;;
946;SDS011;460;48.734;9.152;2023-06-01T08:35:40;3.23;;;2.73;;
946;SDS011;460;48.734;9.152;2023-06-01T08:38:08;3.50;;;2.47;;
946;SDS011;460;48.734;9.152;2023-06-01T08:40:35;2.83;;;2.60;;
946;SDS011;460;48.734;9.152;2023-06-01T08:43:04;3.40;;;2.73;;
946;SDS011;460;48.734;9.152;2023-06-01T08:45:35;3.63;;;3.27;;
946;SDS011;460;48.734;9.152;2023-06-01T08:48:04;4.67;;;3.00;;
946;SDS011;460;48.734;9.152;2023-06-01T08:50:33;5.60;;;2.20;;
946;SDS011;460;48.734;9.152;2023-06-01T08:53:01;2.83;;;2.53;;
946;SDS011;460;48.734;9.152;2023-06-01T08:55:31;4.20;;;3.23;;
946;SDS011;460;48.734;9.152;2023-06-01T08:57:57;2.47;;;2.27;;
946;SDS011;460;48.734;9.152;2023-06-01T09:00:24;3.20;;;2.80;;
946;SDS011;460;48.734;9.152;2023-06-01T09:02:52;5.37;;;3.43;;
946;SDS011;460;48.734;9.152;2023-06-01T09:05:19;3.70;;;3.40;;
946;SDS011;460;48.734;9.152;2023-06-01T09:07:46;3.80;;;2.83;;
946;SDS011;460;48.734;9.152;2023-06-01T09:10:15;4.27;;;3.23;;
946;SDS011;460;48.734;9.152;2023-06-01T09:12:51;5.93;;;2.80;;
946;SDS011;460;48.734;9.152;2023-06-01T09:15:19;2.90;;;2.70;;
946;SDS011;460;48.734;9.152;2023-06-01T09:17:48;3.70;;;2.90;;
946;SDS011;460;48.734;9.152;2023-06-01T09:20:21;4.13;;;3.10;;
946;SDS011;460;48.734;9.152;2023-06-01T09:22:49;3.30;;;2.50;;
946;SDS011;460;48.734;9.152;2023-06-01T09:25:16;2.70;;;2.50;;
946;SDS011;460;48.734;9.152;2023-06-01T09:27:43;3.17;;;2.90;;
946;SDS011;460;48.734;9.152;2023-06-01T09:30:13;3.03;;;2.73;;
946;SDS011;460;48.734;9.152;2023-06-01T09:32:41;3.80;;;3.50;;
946;SDS011;460;48.734;9.152;2023-06-01T09:35:09;3.20;;;2.90;;
946;SDS011;460;48.734;9.152;2023-06-01T09:37:37;4.20;;;2.90;;
946;SDS011;460;48.734;9.152;2023-06-01T09:40:15;2.63;;;2.43;;
946;SDS011;460;48.734;9.152;2023-06-01T09:42:43;4.40;;;4.00;;
946;SDS011;460;48.734;9.152;2023-06-01T09:45:17;3.80;;;3.50;;
946;SDS011;460;48.734;9.152;2023-06-01T09:47:45;3.87;;;3.47;;
946;SDS011;460;48.734;9.152;2023-06-01T09:50:31;2.87;;;2.67;;
946;SDS011;460;48.734;9.152;2023-06-01T09:53:00;4.97;;;3.73;;
946;SDS011;460;48.734;9.152;2023-06-01T09:55:27;4.53;;;3.43;;
946;SDS011;460;48.734;9.152;2023-06-01T09:58:01;3.50;;;3.10;;
946;SDS011;460;48.734;9.152;2023-06-01T10:00:44;2.70;;;2.50;;
946;SDS011;460;48.734;9.152;2023-06-01T10:03:13;4.10;;;3.37;;
946;SDS011;460;48.734;9.152;2023-06-01T10:05:41;4.37;;;3.90;;
946;SDS011;460;48.734;9.152;2023-06-01T10:08:08;3.70;;;3.40;;
946;SDS011;460;48.734;9.152;2023-06-01T10:10:37;3.17;;;2.90;;
946;SDS011;460;48.734;9.152;2023-06-01T10:13:04;3.80;;;3.33;;
946;SDS011;460;48.734;9.152;2023-06-01T10:15:31;3.30;;;3.00;;
946;SDS011;460;48.734;9.152;2023-06-01T10:18:00;3.77;;;3.40;;
946;SDS011;460;48.734;9.152;2023-06-01T10:20:27;3.60;;;3.17;;
946;SDS011;460;48.734;9.152;2023-06-01T10:22:55;3.27;;;2.97;;
946;SDS011;460;48.734;9.152;2023-06-01T10:25:22;3.30;;;3.00;;
946;SDS011;460;48.734;9.152;2023-06-01T10:27:52;3.77;;;3.40;;
946;SDS011;460;48.734;9.152;2023-06-01T10:30:22;4.03;;;2.80;;
946;SDS011;460;48.734;9.152;2023-06-01T10:32:49;3.47;;;3.27;;
946;SDS011;460;48.734;9.152;2023-06-01T10:38:23;4.27;;;3.20;;
946;SDS011;460;48.734;9.152;2023-06-01T10:40:51;2.77;;;2.57;;
946;SDS011;460;48.734;9.152;2023-06-01T10:49:03;4.00;;;3.33;;
946;SDS011;460;48.734;9.152;2023-06-01T10:51:32;3.50;;;3.20;;
946;SDS011;460;48.734;9.152;2023-06-01T11:05:37;6.17;;;3.87;;
946;SDS011;460;48.734;9.152;2023-06-01T11:11:13;5.00;;;2.93;;
946;SDS011;460;48.734;9.152;2023-06-01T11:13:39;3.27;;;2.93;;
946;SDS011;460;48.734;9.152;2023-06-01T11:18:56;3.20;;;2.90;;
946;SDS011;460;48.734;9.152;2023-06-01T11:21:25;3.50;;;3.20;;
946;SDS011;460;48.734;9.152;2023-06-01T11:23:52;3.83;;;3.53;;
946;SDS011;460;48.734;9.152;2023-06-01T11:26:22;2.70;;;2.50;;
946;SDS011;460;48.734;9.152;2023-06-01T11:28:50;3.27;;;2.97;;
946;SDS011;460;48.734;9.152;2023-06-01T11:31:19;3.37;;;2.73;;
946;SDS011;460;48.734;9.152;2023-06-01T11:33:48;3.90;;;3.60;;
946;SDS011;460;48.734;9.152;2023-06-01T11:36:18;3.87;;;3.57;;
946;SDS011;460;48.734;9.152;2023-06-01T11:38:49;3.83;;;3.53;;
946;SDS011;460;48.734;9.152;2023-06-01T11:41:18;5.73;;;4.30;;
946;SDS011;460;48.734;9.152;2023-06-01T11:43:54;3.70;;;3.40;;
946;SDS011;460;48.734;9.152;2023-06-01T11:46:22;3.30;;;3.10;;
946;SDS011;460;48.734;9.152;2023-06-01T11:48:58;3.97;;;3.60;;
946;SDS011;460;48.734;9.152;2023-06-01T11:51:29;4.70;;;4.17;;
946;SDS011;460;48.734;9.152;2023-06-01T11:53:57;3.17;;;2.90;;
946;SDS011;460;48.734;9.152;2023-06-01T11:56:29;3.33;;;3.13;;
946;SDS011;460;48.734;9.152;2023-06-01T11:58:58;5.93;;;4.00;;
946;SDS011;460;48.734;9.152;2023-06-01T12:01:26;3.60;;;3.30;;
946;SDS011;460;48.734;9.152;2023-06-01T12:03:54;3.83;;;3.47;;
946;SDS011;460;48.734;9.152;2023-06-01T12:06:22;3.33;;;3.13;;
946;SDS011;460;48.734;9.152;2023-06-01T12:08:49;3.33;;;3.07;;
946;SDS011;460;48.734;9.152;2023-06-01T12:11:17;4.53;;;3.40;;
946;SDS011;460;48.734;9.152;2023-06-01T12:13:46;3.50;;;3.03;;
946;SDS011;460;48.734;9.152;2023-06-01T12:16:16;3.00;;;2.80;;
946;SDS011;460;48.734;9.152;2023-06-01T12:18:43;3.60;;;3.30;;
946;SDS011;460;48.734;9.152;2023-06-01T12:21:10;3.20;;;3.00;;
946;SDS011;460;48.734;9.152;2023-06-01T12:23:38;3.27;;;2.97;;
946;SDS011;460;48.734;9.152;2023-06-01T12:26:06;3.20;;;3.00;;
946;SDS011;460;48.734;9.152;2023-06-01T12:31:19;3.40;;;3.10;;
946;SDS011;460;48.734;9.152;2023-06-01T12:33:47;3.10;;;2.90;;
946;SDS011;460;48.734;9.152;2023-06-01T12:36:30;3.22;;;2.95;;
946;SDS011;460;48.734;9.152;2023-06-01T12:38:58;3.45;;;3.25;;
946;SDS011;460;48.734;9.152;2023-06-01T12:41:26;3.17;;;2.97;;
946;SDS011;460;48.734;9.152;2023-06-01T12:43:54;3.50;;;3.20;;
946;SDS011;460;48.734;9.152;2023-06-01T12:46:23;3.47;;;3.17;;
946;SDS011;460;48.734;9.152;2023-06-01T12:48:51;3.42;;;3.15;;
946;SDS011;460;48.734;9.152;2023-06-01T12:51:20;3.45;;;3.15;;
946;SDS011;460;48.734;9.152;2023-06-01T12:53:47;4.25;;;3.78;;
946;SDS011;460;48.734;9.152;2023-06-01T12:56:14;3.20;;;3.00;;
946;SDS011;460;48.734;9.152;2023-06-01T12:58:41;3.53;;;2.97;;
946;SDS011;460;48.734;9.152;2023-06-01T13:01:08;3.63;;;3.33;;
946;SDS011;460;48.734;9.152;2023-06-01T13:03:37;2.90;;;2.70;;
946;SDS011;460;48.734;9.152;2023-06-01T13:06:04;3.10;;;2.90;;
946;SDS011;460;48.734;9.152;2023-06-01T13:08:31;3.75;;;3.45;;
946;SDS011;460;48.734;9.152;2023-06-01T13:10:58;4.00;;;3.20;;
946;SDS011;460;48.734;9.152;2023-06-01T13:13:25;3.33;;;3.08;;
946;SDS011;460;48.734;9.152;2023-06-01T13:15:51;3.55;;;3.25;;
946;SDS011;460;48.734;9.152;2023-06-01T13:18:18;3.85;;;3.58;;
946;SDS011;460;48.734;9.152;2023-06-01T13:20:46;3.67;;;3.42;;
946;SDS011;460;48.734;9.152;2023-06-01T13:23:13;2.58;;;2.45;;
946;SDS011;460;48.734;9.152;2023-06-01T13:25:40;3.53;;;3.30;;
946;SDS011;460;48.734;9.152;2023-06-01T13:28:07;3.05;;;2.85;;
946;SDS011;460;48.734;9.152;2023-06-01T13:30:33;3.65;;;3.35;;
946;SDS011;460;48.734;9.152;2023-06-01T13:33:01;3.00;;;2.80;;
946;SDS011;460;48.734;9.152;2023-06-01T13:35:28;3.35;;;3.15;;
946;SDS011;460;48.734;9.152;2023-06-01T13:37:56;2.83;;;2.63;;
946;SDS011;460;48.734;9.152;2023-06-01T13:40:23;2.97;;;2.83;;
946;SDS011;460;48.734;9.152;2023-06-01T13:42:50;3.40;;;3.10;;
946;SDS011;460;48.734;9.152;2023-06-01T13:45:17;4.13;;;3.40;;
946;SDS011;460;48.734;9.152;2023-06-01T13:47:44;3.40;;;3.17;;
946;SDS011;460;48.734;9.152;2023-06-01T13:50:11;3.23;;;2.93;;
946;SDS011;460;48.734;9.152;2023-06-01T13:52:38;2.90;;;2.70;;
946;SDS011;460;48.734;9.152;2023-06-01T13:55:07;4.33;;;3.97;;
946;SDS011;460;48.734;9.152;2023-06-01T13:57:35;3.40;;;3.10;;
946;SDS011;460;48.734;9.152;2023-06-01T14:00:03;4.27;;;3.97;;
946;SDS011;460;48.734;9.152;2023-06-01T14:02:33;3.30;;;3.07;;
946;SDS011;460;48.734;9.152;2023-06-01T14:05:00;3.17;;;2.90;;
946;SDS011;460;48.734;9.152;2023-06-01T14:07:27;3.40;;;3.10;;
946;SDS011;460;48.734;9.152;2023-06-01T14:09:53;2.90;;;2.70;;
946;SDS011;460;48.734;9.152;2023-06-01T14:12:22;3.30;;;3.10;;
946;SDS011;460;48.734;9.152;2023-06-01T14:14:48;3.20;;;3.00;;
946;SDS011;460;48.734;9.152;2023-06-01T14:17:15;3.53;;;3.30;;
946;SDS011;460;48.734;9.152;2023-06-01T14:19:42;3.50;;;3.20;;
946;SDS011;460;48.734;9.152;2023-06-01T14:22:09;4.20;;;2.73;;
946;SDS011;460;48.734;9.152;2023-06-01T14:24:36;2.20;;;2.10;;
946;SDS011;460;48.734;9.152;2023-06-01T14:27:03;3.30;;;3.10;;
946;SDS011;460;48.734;9.152;2023-06-01T14:29:32;2.60;;;2.40;;
946;SDS011;460;48.734;9.152;2023-06-01T14:31:59;4.40;;;2.53;;
946;SDS011;460;48.734;9.152;2023-06-01T14:34:26;2.37;;;2.20;;
946;SDS011;460;48.734;9.152;2023-06-01T14:36:53;2.00;;;1.87;;
946;SDS011;460;48.734;9.152;2023-06-01T14:39:19;2.27;;;2.07;;
946;SDS011;460;48.734;9.152;2023-06-01T14:41:46;2.70;;;2.50;;
946;SDS011;460;48.734;9.152;2023-06-01T14:44:13;2.17;;;1.97;;
946;SDS011;460;48.734;9.152;2023-06-01T14:46:41;2.73;;;2.53;;
946;SDS011;460;48.734;9.152;2023-06-01T14:49:08;2.60;;;2.40;;
946;SDS011;460;48.734;9.152;2023-06-01T14:51:35;2.20;;;2.10;;
946;SDS011;460;48.734;9.152;2023-06-01T14:54:02;3.70;;;2.47;;
946;SDS011;460;48.734;9.152;2023-06-01T14:56:29;1.90;;;1.80;;
946;SDS011;460;48.734;9.152;2023-06-01T14:58:56;3.73;;;2.40;;
946;SDS011;460;48.734;9.152;2023-06-01T15:01:22;2.27;;;2.10;;
946;SDS011;460;48.734;9.152;2023-06-01T15:03:51;2.50;;;2.30;;
946;SDS011;460;48.734;9.152;2023-06-01T15:06:18;2.50;;;2.30;;
946;SDS011;460;48.734;9.152;2023-06-01T15:08:44;1.80;;;1.70;;
946;SDS011;460;48.734;9.152;2023-06-01T15:11:11;2.20;;;2.00;;
946;SDS011;460;48.734;9.152;2023-06-01T15:13:39;2.70;;;2.50;;
946;SDS011;460;48.734;9.152;2023-06-01T15:16:07;2.47;;;1.70;;
946;SDS011;460;48.734;9.152;2023-06-01T15:18:33;2.93;;;2.73;;
946;SDS011;460;48.734;9.152;2023-06-01T15:21:01;2.47;;;2.27;;
946;SDS011;460;48.734;9.152;2023-06-01T15:23:29;3.83;;;2.07;;
946;SDS011;460;48.734;9.152;2023-06-01T15:25:56;2.43;;;2.23;;
946;SDS011;460;48.734;9.152;2023-06-01T15:28:23;1.90;;;1.80;;
946;SDS011;460;48.734;9.152;2023-06-01T15:30:50;2.43;;;2.23;;
946;SDS011;460;48.734;9.152;2023-06-01T15:33:17;7.40;;;3.17;;
946;SDS011;460;48.734;9.152;2023-06-01T15:35:44;2.73;;;2.37;;
946;SDS011;460;48.734;9.152;2023-06-01T15:38:12;4.00;;;2.13;;
946;SDS011;460;48.734;9.152;2023-06-01T15:40:39;2.07;;;1.97;;
946;SDS011;460;48.734;9.152;2023-06-01T15:43:05;2.17;;;1.97;;
946;SDS011;460;48.734;9.152;2023-06-01T15:45:32;2.40;;;2.10;;
946;SDS011;460;48.734;9.152;2023-06-01T15:47:59;2.83;;;2.37;;
946;SDS011;460;48.734;9.152;2023-06-01T15:50:26;2.80;;;2.33;;
946;SDS011;460;48.734;9.152;2023-06-01T15:52:52;1.60;;;1.50;;
946;SDS011;460;48.734;9.152;2023-06-01T15:55:21;2.10;;;1.90;;
946;SDS011;460;48.734;9.152;2023-06-01T15:57:48;2.13;;;2.03;;
946;SDS011;460;48.734;9.152;2023-06-01T16:00:15;2.47;;;2.27;;
946;SDS011;460;48.734;9.152;2023-06-01T16:02:42;3.20;;;1.90;;
946;SDS011;460;48.734;9.152;2023-06-01T16:05:09;2.20;;;2.10;;
946;SDS011;460;48.734;9.152;2023-06-01T16:07:36;2.93;;;2.20;;
946;SDS011;460;48.734;9.152;2023-06-01T16:10:02;2.30;;;1.83;;
946;SDS011;460;48.734;9.152;2023-06-01T16:12:31;2.67;;;2.47;;
946;SDS011;460;48.734;9.152;2023-06-01T16:14:58;2.17;;;2.07;;
946;SDS011;460;48.734;9.152;2023-06-01T16:17:25;2.23;;;2.13;;
946;SDS011;460;48.734;9.152;2023-06-01T16:19:52;2.67;;;1.93;;